• Join FlightAware (Why Join?)
  • Login
  • US Flag 
11:02AM EST


 

Airport Tracker/Info


-or-


 

Live Flight TrackerFlight Track Log ✈ N232CF ✈ 28-Apr-2013 ✈ KSGF - KMTN

Flight Track Log - Related Links

Times and Time Zones

All times are in EDT time to prevent confusion due to time zone crossing. See the N232CF flight status page for this flight to view local times or setup timezone preferences in your user account.

Time Position Orientation Groundspeed Altitude Reporting Facility
EDT Latitude Longitude Course Direction KTS MPH feet Rate Location/Type
03:17PM 37.3714 -93.3283 71° East 276 318 10,600  Level Kansas City Center
03:18PM 37.3983 -93.2203 73° East 300 345 12,800 2,100 Climbing Kansas City Center
03:19PM 37.4306 -93.0994 71° East 351 404 15,000 1,020 Climbing Kansas City Center
03:20PM 37.4452 -92.6362 72° East  Level FlightAware Approximate
03:20PM 37.4486 -92.9553 81° East 415 478 15,000  Level Kansas City Center
03:21PM 37.4831 -92.4843 72° East  Level FlightAware Approximate
03:21PM 37.4589 -92.8047 85° East 431 496 17,200  Level Kansas City Center
03:22PM 37.4886 -92.6744 74° East 396 456 20,500 3,000 Climbing Kansas City Center
03:23PM 37.5317 -92.5189 71° East 390 449 23,500 2,460 Climbing Kansas City Center
03:24PM 37.5492 -92.3803 81° East 413 475 25,700 2,160 Climbing Kansas City Center
03:25PM 37.5472 -92.2317 91° East 420 483 28,000 2,040 Climbing Kansas City Center
03:26PM 37.5450 -92.0797 91° East 431 496 30,000 1,800 Climbing Kansas City Center
03:27PM 37.5611 -91.9272 82° East 439 505 31,800 1,920 Climbing Kansas City Center
03:28PM 37.6114 -91.7472 71° East 451 519 34,000 1,980 Climbing Kansas City Center
03:29PM 37.6533 -91.5944 71° East 459 528 35,900 1,620 Climbing Kansas City Center
03:30PM 37.6964 -91.4397 71° East 465 535 37,400 1,500 Climbing Kansas City Center
03:31PM 37.7403 -91.2819 71° East 471 542 39,000 720 Climbing Kansas City Center
03:32PM 37.7842 -91.1169 71° East 487 560 39,000  Level Kansas City Center
03:33PM 37.8333 -90.9356 71° East 515 593 39,000  Level Kansas City Center
03:34PM 37.8794 -90.7600 72° East 527 606 39,000  Level Kansas City Center
03:35PM 37.9250 -90.5806 72° East 538 619 39,000  Level Kansas City Center
03:36PM 37.9800 -90.3692 72° East 533 613 39,000  Level Kansas City Center
03:37PM 38.0306 -90.1797 71° East 530 610 39,000 360 Level Kansas City Center
03:38PM 38.0750 -90.0033 72° East 529 609 39,800 960 Climbing Kansas City Center
03:39PM 38.1239 -89.8167 72° East 523 602 41,000 540 Climbing Kansas City Center
03:40PM 38.1689 -89.6411 72° East 524 603 41,000  Level Kansas City Center
03:41PM 38.2169 -89.4467 72° East 534 615 41,000  Level Kansas City Center
03:42PM 38.2619 -89.2664 72° East 537 618 41,000  Level Kansas City Center
03:43PM 38.3103 -89.0728 72° East 537 618 41,000  Level Kansas City Center
03:45PM 38.3528 -88.8931 73° East 534 615 41,000  Level Kansas City Center
03:46PM 38.4031 -88.6969 72° East 540 621 41,000  Level Kansas City Center
03:47PM 38.4442 -88.5181 74° East 537 618 41,000  Level Kansas City Center
03:48PM 38.4892 -88.3353 72° East 536 617 41,000  Level Kansas City Center
03:49PM 38.5339 -88.1517 73° East 536 617 41,000  Level Kansas City Center
03:50PM 38.5775 -87.9658 73° East 539 620 41,000  Level Kansas City Center
03:51PM 38.6217 -87.7792 73° East 540 621 41,000  Level Indianapolis Center
03:52PM 38.6650 -87.5933 73° East 541 623 41,000  Level Indianapolis Center
03:53PM 38.7089 -87.4058 73° East 543 625 41,000  Level Indianapolis Center
03:54PM 38.7522 -87.2169 74° East 544 626 41,000  Level Indianapolis Center
03:55PM 38.7956 -87.0281 74° East 546 628 41,000  Level Indianapolis Center
03:56PM 38.8728 -86.8594 59° Northeast 541 623 41,000  Level Indianapolis Center
03:57PM 38.9689 -86.6594 58° Northeast 543 625 41,000  Level Indianapolis Center
03:58PM 39.0464 -86.4992 58° Northeast 551 634 41,000  Level Indianapolis Center
03:59PM 39.1286 -86.3331 57° Northeast 549 632 41,000  Level Indianapolis Center
04:00PM 39.2114 -86.1669 57° Northeast 551 634 41,000  Level Indianapolis Center
04:01PM 39.2806 -85.9536 67° East 553 636 41,000  Level Indianapolis Center
04:02PM 39.3114 -85.7594 78° East 554 638 41,000  Level Indianapolis Center
04:03PM 39.3431 -85.5653 78° East 553 636 41,000  Level Indianapolis Center
04:04PM 39.3764 -85.3678 78° East 559 643 41,000  Level Indianapolis Center
04:05PM 39.4069 -85.1706 79° East 559 643 41,000  Level Indianapolis Center
04:06PM 39.4392 -84.9750 78° East 556 640 41,000  Level Indianapolis Center
04:07PM 39.4700 -84.7739 79° East 556 640 41,000  Level Indianapolis Center
04:08PM 39.5067 -84.5447 78° East 555 639 41,000  Level Indianapolis Center
04:09PM 39.5358 -84.3483 79° East 552 635 41,000  Level Indianapolis Center
04:10PM 39.5647 -84.1522 79° East 551 634 41,000  Level Indianapolis Center
04:11PM 39.5950 -83.9547 79° East 556 640 41,000 -60 Level Indianapolis Center
04:12PM 39.6225 -83.7572 80° East 555 639 40,900  Descending Indianapolis Center
04:13PM 39.6517 -83.5606 79° East 557 641 41,000  Climbing Indianapolis Center
04:14PM 39.6850 -83.3322 79° East 558 642 41,000  Level Indianapolis Center
04:15PM 39.7131 -83.1358 79° East 556 640 41,000  Level Indianapolis Center
04:16PM 39.7411 -82.9383 79° East 555 639 41,000  Level Indianapolis Center
04:18PM 39.7683 -82.7389 80° East 557 641 41,000  Level Indianapolis Center
04:19PM 39.7958 -82.5411 80° East 553 636 41,000  Level Indianapolis Center
04:20PM 39.8225 -82.3414 80° East 555 639 41,000  Level Indianapolis Center
04:21PM 39.8492 -82.1408 80° East 558 642 41,000  Level Indianapolis Center
04:22PM 39.8800 -81.9058 80° East 560 644 41,000  Level Indianapolis Center
04:23PM 39.9064 -81.7025 80° East 565 650 41,000  Level Indianapolis Center
04:24PM 39.9317 -81.5000 81° East 562 647 41,000  Level Indianapolis Center
04:25PM 39.9386 -81.3122 87° East 558 642 41,000  Level Indianapolis Center
04:26PM 39.9167 -81.1097 98° East 561 646 41,000  Level Indianapolis Center
04:26PM 39.9078 -81.0161 97° East 553 636 41,000  Level Cleveland Center
04:27PM 39.8856 -80.8183 98° East 553 636 41,000 -120 Level Cleveland Center
04:28PM 39.8608 -80.6236 99° East 553 636 40,800 -1,140 Descending Cleveland Center
04:29PM 39.8356 -80.4236 99° East 553 636 38,800 -2,040 Descending Cleveland Center
04:30PM 39.8122 -80.2183 98° East 564 649 36,700 -2,100 Descending Cleveland Center
04:31PM 39.7844 -80.0131 100° East 570 656 34,600 -2,100 Descending Cleveland Center
04:32PM 39.7581 -79.8081 99° East 570 656 32,500 -2,040 Descending Cleveland Center
04:33PM 39.7292 -79.5767 99° East 555 639 30,000 -2,100 Descending Washington Center
04:34PM 39.7022 -79.3783 100° East 555 639 27,900 -2,100 Descending Washington Center
04:35PM 39.6769 -79.1828 99° East 549 632 25,900 -1,440 Descending Washington Center
04:36PM 39.6447 -79.0033 103° East 533 613 25,000 -600 Descending Washington Center
04:37PM 39.6039 -78.8183 106° East 524 603 24,800 -1,440 Descending Washington Center
04:38PM 39.5647 -78.6442 106° East 517 595 22,200 -2,580 Descending Washington Center
04:39PM 39.5269 -78.4811 107° East 492 566 19,800 -2,400 Descending Washington Center
04:40PM 39.4911 -78.3211 106° East 475 547 17,500 -2,340 Descending Washington Center
04:41PM 39.4569 -78.1639 106° East 461 531 15,200 -1,260 Descending Washington Center
04:42PM 39.4497 -78.0103 93° East 444 511 15,000 -240 Descending Washington Center
04:43PM 39.4486 -77.8572 90° East 429 494 14,800 -660 Descending Washington Center
04:44PM 39.4469 -77.7147 91° East 418 481 13,700 -1,080 Descending Washington Center
04:45PM 39.4472 -77.5831 90° East 391 450 12,700 -1,020 Descending Washington Center
04:46PM 39.4469 -77.4619 90° East 358 412 11,700 -900 Descending Washington Center
04:47PM 39.4489 -77.3439 89° East 337 388 11,000 -360 Descending Washington Center
04:48PM 39.4608 -77.2286 82° East 324 373 11,000 -420 Level Washington Center
04:49PM 39.4811 -77.1133 77° East 324 373 10,200 -1,140 Descending Washington Center
04:50PM 39.5000 -76.9833 79° East 309 356 8,700 -1,560 Descending Potomac TRACON
04:51PM 39.5167 -76.8667 79° East 293 337 7,000 -2,220 Descending Potomac TRACON
04:52PM 39.5167 -76.7833 90° East 255 293 4,300 -2,040 Descending Potomac TRACON
04:53PM 39.4833 -76.7000 117° Southeast 238 274 3,000 -840 Descending Potomac TRACON
04:54PM 39.4500 -76.6333 123° Southeast 244 281 2,800 -480 Descending Potomac TRACON
04:55PM 39.4167 -76.5667 123° Southeast 239 275 2,100 -600 Descending Potomac TRACON
04:56PM 39.3833 -76.5000 123° Southeast 205 236 1,600 -660 Descending Potomac TRACON
04:57PM 39.3667 -76.4667 123° Southeast 155 178 900 -780 Descending Potomac TRACON
04:58PM 39.3333 -76.4333 142° Southeast 131 151 200 -720 Descending Potomac TRACON
05:00PM 39.3257 -76.4138 113° Southeast  Level Estimated
05:07PM 39.3257 -76.4138 113° Southeast  Level Estimated
05:08PM 39.3257 -76.4138 113° Southeast  Level Estimated
05:09PM 39.3257 -76.4138 113° Southeast  Level Estimated
05:10PM 39.3257 -76.4138 113° Southeast  Level Estimated
05:11PM 39.3257 -76.4138 113° Southeast  Level Estimated
05:12PM 39.3257 -76.4138 113° Southeast  Level Estimated
05:13PM 39.3257 -76.4138 113° Southeast  Level Estimated
05:14PM 39.3257 -76.4138 113° Southeast  Level Estimated